Time;durP1;ratioP1;P1;durP2;ratioP2;P2;SDS_P1;SDS_P2;PMS_P1;PMS_P2;Temp;Humidity;BMP_temperature;BMP_pressure;BME280_temperature;BME280_humidity;BME280_pressure;Samples;Min_cycle;Max_cycle;Signal;HPM_P1;HPM_P2
2022/04/01 00:00:08;;;;;;;8.13;7.33;;;;;;;-148.33;100.00;56587.81;5068131;28;20031;-60
2022/04/01 00:02:33;;;;;;;8.30;7.00;;;;;;;-148.33;100.00;56587.81;5067958;28;20051;-61
2022/04/01 00:04:59;;;;;;;7.30;6.60;;;;;;;-148.33;100.00;56587.81;5067375;28;20039;-61
2022/04/01 00:07:24;;;;;;;6.60;6.10;;;;;;;-148.33;100.00;56587.81;5067883;28;20021;-61
2022/04/01 00:09:49;;;;;;;6.67;6.07;;;;;;;-148.33;100.00;56587.81;5068202;28;20048;-62
2022/04/01 00:12:15;;;;;;;5.97;5.47;;;;;;;-148.33;100.00;56587.81;5067761;28;20020;-62
2022/04/01 00:14:40;;;;;;;6.13;5.63;;;;;;;-148.33;100.00;56587.81;5066316;28;20051;-58
2022/04/01 00:17:07;;;;;;;5.87;5.33;;;;;;;-148.33;100.00;56587.81;5068143;28;20107;-61
2022/04/01 00:19:32;;;;;;;6.20;5.17;;;;;;;-148.33;100.00;56587.81;5068069;28;20024;-58
2022/04/01 00:21:58;;;;;;;5.43;4.93;;;;;;;-148.33;100.00;56587.81;5067718;28;20021;-60
2022/04/01 00:24:24;;;;;;;6.63;5.60;;;;;;;-148.33;100.00;56587.81;5067428;28;20149;-61
2022/04/01 00:26:50;;;;;;;6.00;5.40;;;;;;;-148.33;100.00;56587.81;5068193;28;20036;-62
2022/04/01 00:29:15;;;;;;;5.60;4.97;;;;;;;-148.33;100.00;56587.81;5067417;28;20028;-62
2022/04/01 00:31:45;;;;;;;5.27;4.73;;;;;;;-148.33;100.00;56587.81;5066909;28;20033;-61
2022/04/01 00:34:16;;;;;;;4.90;4.47;;;;;;;-148.33;100.00;56587.81;5067185;28;20032;-61
2022/04/01 00:36:46;;;;;;;4.83;4.33;;;;;;;-148.33;100.00;56587.81;5067441;28;20099;-62
2022/04/01 00:39:13;;;;;;;5.30;4.80;;;;;;;-148.33;100.00;56587.81;5067585;28;20075;-58
2022/04/01 00:41:39;;;;;;;5.50;4.60;;;;;;;-148.33;100.00;56587.81;5067292;28;20035;-57
2022/04/01 00:44:20;;;;;;;4.47;4.00;;;;;;;-148.33;100.00;56587.81;5067367;28;20033;-62
2022/04/01 00:46:47;;;;;;;5.70;4.63;;;;;;;-148.33;100.00;56587.81;5067455;28;20029;-61
2022/04/01 00:49:13;;;;;;;5.13;4.63;;;;;;;-148.33;100.00;56587.81;5055842;28;20605;-61
2022/04/01 00:51:41;;;;;;;5.43;4.93;;;;;;;-148.33;100.00;56587.81;5047949;28;20040;-61
2022/04/01 00:54:08;;;;;;;5.07;4.57;;;;;;;-148.33;100.00;56587.81;5048586;28;20025;-60
2022/04/01 00:56:34;;;;;;;5.37;4.60;;;;;;;-148.33;100.00;56587.81;5048235;28;20056;-58
2022/04/01 00:59:01;;;;;;;5.50;5.00;;;;;;;-148.33;100.00;56587.81;5048347;28;20025;-61
2022/04/01 01:01:27;;;;;;;5.20;4.70;;;;;;;-148.33;100.00;56587.81;5048127;28;20074;-61
2022/04/01 01:03:52;;;;;;;6.17;5.20;;;;;;;-148.33;100.00;56587.81;5048091;28;20039;-61
2022/04/01 01:06:20;;;;;;;5.90;5.30;;;;;;;-148.33;100.00;56587.81;5047397;28;20071;-61
2022/04/01 01:08:45;;;;;;;6.30;4.80;;;;;;;-148.33;100.00;56587.81;5047575;28;20029;-62
2022/04/01 01:11:11;;;;;;;5.23;4.37;;;;;;;-148.33;100.00;56587.81;5047885;28;20048;-61
2022/04/01 01:13:36;;;;;;;7.03;5.00;;;;;;;-148.33;100.00;56587.81;5047983;28;20060;-60
2022/04/01 01:16:01;;;;;;;5.10;4.60;;;;;;;-148.33;100.00;56587.81;5047922;28;20063;-62
2022/04/01 01:18:27;;;;;;;8.43;5.73;;;;;;;-148.33;100.00;56587.81;5047378;28;20032;-56
2022/04/01 01:20:52;;;;;;;4.77;4.37;;;;;;;-148.33;100.00;56587.81;5047649;28;20029;-61
2022/04/01 01:23:18;;;;;;;5.23;4.73;;;;;;;-148.33;100.00;56587.81;5047955;28;20036;-60
2022/04/01 01:25:45;;;;;;;5.10;4.57;;;;;;;-148.33;100.00;56587.81;5047883;28;20067;-61
2022/04/01 01:28:11;;;;;;;5.10;4.60;;;;;;;-148.33;100.00;56587.81;5050753;28;20493;-60
2022/04/01 01:30:36;;;;;;;5.00;4.47;;;;;;;-148.33;100.00;56587.81;5051900;28;20036;-61
2022/04/01 01:33:02;;;;;;;4.83;4.40;;;;;;;-148.33;100.00;56587.81;5051769;28;20103;-62
2022/04/01 01:35:28;;;;;;;5.00;4.50;;;;;;;-148.33;100.00;56587.81;5051918;28;20056;-61
2022/04/01 01:37:54;;;;;;;4.70;4.30;;;;;;;-148.33;100.00;56587.81;5051642;28;20064;-61
2022/04/01 01:40:19;;;;;;;4.80;4.40;;;;;;;-148.33;100.00;56587.81;5050682;28;20484;-61
2022/04/01 01:42:44;;;;;;;5.10;4.60;;;;;;;-148.33;100.00;56587.81;5051395;28;20441;-61
2022/04/01 01:45:10;;;;;;;5.27;4.77;;;;;;;-148.33;100.00;56587.81;5051400;28;20032;-62
2022/04/01 01:47:35;;;;;;;6.33;5.73;;;;;;;-148.33;100.00;56587.81;5051417;28;20031;-61
2022/04/01 01:55:29;;;;;;;5.67;4.73;;;;;;;-148.33;100.00;56587.81;5051439;28;20270;-62
2022/04/01 01:57:56;;;;;;;4.83;4.43;;;;;;;-148.33;100.00;56587.81;5051477;28;20392;-61
2022/04/01 02:00:22;;;;;;;5.27;4.77;;;;;;;-148.33;100.00;56587.81;5051306;28;20115;-57
2022/04/01 02:02:48;;;;;;;5.63;5.13;;;;;;;-148.33;100.00;56587.81;5050803;28;20110;-61
2022/04/01 02:05:16;;;;;;;5.23;4.73;;;;;;;-148.33;100.00;56587.81;5051609;28;20033;-61
2022/04/01 02:07:47;;;;;;;5.00;4.60;;;;;;;-148.33;100.00;56587.81;5050678;28;20029;-61
2022/04/01 02:10:13;;;;;;;5.27;4.73;;;;;;;-148.33;100.00;56587.81;5051804;28;20070;-62
2022/04/01 02:12:38;;;;;;;5.60;4.73;;;;;;;-148.33;100.00;56587.81;5051239;28;20124;-60
2022/04/01 02:15:05;;;;;;;5.37;4.93;;;;;;;-148.33;100.00;56587.81;5050915;28;20358;-61
2022/04/01 02:17:31;;;;;;;4.90;4.50;;;;;;;-148.33;100.00;56587.81;5051215;28;20039;-62
2022/04/01 02:19:56;;;;;;;5.23;4.73;;;;;;;-148.33;100.00;56587.81;5051891;28;20075;-61
2022/04/01 02:22:22;;;;;;;5.00;4.60;;;;;;;-148.33;100.00;56587.81;5050700;28;20349;-61
2022/04/01 02:24:50;;;;;;;5.03;4.60;;;;;;;-148.33;100.00;56587.81;5051352;28;20110;-62
2022/04/01 02:27:17;;;;;;;5.17;4.67;;;;;;;-148.33;100.00;56587.81;5051109;28;20029;-61
2022/04/01 02:29:43;;;;;;;7.03;4.80;;;;;;;-148.33;100.00;56587.81;5050985;28;20489;-62
2022/04/01 02:32:08;;;;;;;5.33;4.87;;;;;;;-148.33;100.00;56587.81;5051091;28;20053;-62
2022/04/01 02:34:33;;;;;;;5.60;5.10;;;;;;;-148.33;100.00;56587.81;5063919;28;20075;-59
2022/04/01 02:36:59;;;;;;;5.73;5.23;;;;;;;-148.33;100.00;56587.81;5069441;28;20392;-58
2022/04/01 02:39:24;;;;;;;5.57;5.17;;;;;;;-148.33;100.00;56587.81;5069599;28;20032;-58
2022/04/01 02:41:50;;;;;;;5.07;4.63;;;;;;;-148.33;100.00;56587.81;5069373;28;20078;-60
2022/04/01 02:44:16;;;;;;;5.43;4.93;;;;;;;-148.33;100.00;56587.81;5068678;28;20031;-61
2022/04/01 02:46:43;;;;;;;6.00;5.40;;;;;;;-148.33;100.00;56587.81;5069013;28;20086;-61
2022/04/01 02:49:11;;;;;;;4.90;4.50;;;;;;;-148.33;100.00;56587.81;5069242;28;20620;-61
2022/04/01 02:51:39;;;;;;;5.27;4.77;;;;;;;-148.33;100.00;56587.81;5069709;28;20085;-60
2022/04/01 02:54:06;;;;;;;5.40;5.00;;;;;;;-148.33;100.00;56587.81;5057866;28;20066;-60
2022/04/01 02:56:33;;;;;;;5.90;5.40;;;;;;;-148.33;100.00;56587.81;5050069;28;20036;-61
2022/04/01 02:59:00;;;;;;;6.17;5.57;;;;;;;-148.33;100.00;56587.81;5050314;28;20071;-56
2022/04/01 03:01:26;;;;;;;5.17;4.77;;;;;;;-148.33;100.00;56587.81;5049786;28;20048;-61
2022/04/01 03:03:51;;;;;;;5.30;4.90;;;;;;;-148.33;100.00;56587.81;5050309;28;20021;-61
2022/04/01 03:06:16;;;;;;;5.33;4.83;;;;;;;-148.33;100.00;56587.81;5060420;28;20035;-61
2022/04/01 03:08:43;;;;;;;5.73;5.23;;;;;;;-148.33;100.00;56587.81;5065248;28;20028;-61
2022/04/01 03:11:09;;;;;;;5.43;5.03;;;;;;;-148.33;100.00;56587.81;5050116;28;20082;-63
2022/04/01 03:13:34;;;;;;;5.70;5.20;;;;;;;-148.33;100.00;56587.81;5066077;28;20464;-59
2022/04/01 03:15:59;;;;;;;5.70;5.30;;;;;;;-148.33;100.00;56587.81;5069596;28;20380;-61
2022/04/01 03:18:25;;;;;;;5.73;5.20;;;;;;;-148.33;100.00;56587.81;5069344;28;20107;-63
2022/04/01 03:20:50;;;;;;;5.80;5.30;;;;;;;-148.33;100.00;56587.81;5068885;28;20029;-61
2022/04/01 03:23:15;;;;;;;7.00;6.50;;;;;;;-148.33;100.00;56587.81;5068923;28;20044;-60
2022/04/01 03:25:41;;;;;;;7.00;6.40;;;;;;;-148.33;100.00;56587.81;5068769;28;20048;-59
2022/04/01 03:28:07;;;;;;;6.33;5.83;;;;;;;-148.33;100.00;56587.81;5067925;28;20121;-57
2022/04/01 03:30:32;;;;;;;8.03;7.33;;;;;;;-148.33;100.00;56587.81;5067682;28;20039;-60
2022/04/01 03:32:58;;;;;;;7.53;6.93;;;;;;;-148.33;100.00;56587.81;5049618;28;20021;-61
2022/04/01 03:35:24;;;;;;;7.93;7.23;;;;;;;-148.33;100.00;56587.81;5049135;28;20283;-61
2022/04/01 03:37:50;;;;;;;8.20;7.50;;;;;;;-148.33;100.00;56587.81;5049519;28;20434;-61
2022/04/01 03:40:17;;;;;;;8.23;7.53;;;;;;;-148.33;100.00;56587.81;5049763;28;20048;-60
2022/04/01 03:42:47;;;;;;;8.30;7.50;;;;;;;-148.33;100.00;56587.81;5048677;28;20051;-61
2022/04/01 03:45:13;;;;;;;9.48;8.65;;;;;;;-148.33;100.00;56587.81;5049854;28;20542;-59
2022/04/01 03:47:49;;;;;;;8.47;7.73;;;;;;;-148.33;100.00;56587.81;5049110;28;20048;-60
2022/04/01 03:50:18;;;;;;;8.37;7.67;;;;;;;-148.33;100.00;56587.81;5048381;28;20029;-59
2022/04/01 03:52:47;;;;;;;7.77;7.17;;;;;;;-148.33;100.00;56587.81;5048542;28;20111;-60
2022/04/01 03:55:12;;;;;;;8.03;7.33;;;;;;;-148.33;100.00;56587.81;5048769;28;20485;-61
2022/04/01 03:57:41;;;;;;;8.07;7.37;;;;;;;-148.33;100.00;56587.81;5048886;28;20036;-60
2022/04/01 04:00:14;;;;;;;8.40;7.70;;;;;;;-148.33;100.00;56587.81;5049031;28;20136;-58
2022/04/01 04:02:44;;;;;;;8.00;7.40;;;;;;;-148.33;100.00;56587.81;5048451;28;20045;-61
2022/04/01 04:05:10;;;;;;;8.13;7.43;;;;;;;-148.33;100.00;56587.81;5049117;28;20017;-61
2022/04/01 04:07:37;;;;;;;8.03;7.33;;;;;;;-148.33;100.00;56587.81;5048391;28;20385;-61
2022/04/01 04:10:06;;;;;;;7.87;7.17;;;;;;;-148.33;100.00;56587.81;5048950;28;20021;-61
2022/04/01 04:12:33;;;;;;;9.13;8.23;;;;;;;-148.33;100.00;56587.81;5048712;28;20074;-61
2022/04/01 04:14:58;;;;;;;7.90;7.30;;;;;;;-148.33;100.00;56587.81;5048561;28;20110;-62
2022/04/01 04:17:32;;;;;;;8.13;7.33;;;;;;;-148.33;100.00;56587.81;5048666;28;20025;-59
2022/04/01 04:20:07;;;;;;;7.97;7.27;;;;;;;-148.33;100.00;56587.81;5048831;28;20378;-62
2022/04/01 04:22:47;;;;;;;8.07;7.37;;;;;;;-148.33;100.00;56587.81;5048122;28;20029;-61
2022/04/01 04:25:17;;;;;;;7.60;6.97;;;;;;;-148.33;100.00;56587.81;5048589;28;20020;-61
2022/04/01 04:28:00;;;;;;;7.67;6.97;;;;;;;-148.33;100.00;56587.81;5048424;28;20031;-61
2022/04/01 04:30:32;;;;;;;7.30;6.73;;;;;;;-148.33;100.00;56587.81;5048345;28;20025;-61
2022/04/01 04:33:09;;;;;;;7.60;7.00;;;;;;;-148.33;100.00;56587.81;5047845;28;20074;-61
2022/04/01 04:35:39;;;;;;;7.27;6.67;;;;;;;-148.33;100.00;56587.81;5047983;28;20539;-58
2022/04/01 04:38:05;;;;;;;7.33;6.73;;;;;;;-148.33;100.00;56587.81;5047748;28;20028;-61
2022/04/01 04:40:32;;;;;;;7.97;7.00;;;;;;;-148.33;100.00;56587.81;5048014;28;20067;-62
2022/04/01 04:42:57;;;;;;;7.57;6.97;;;;;;;-148.33;100.00;56587.81;5048115;28;20025;-59
2022/04/01 04:45:25;;;;;;;6.93;6.33;;;;;;;-148.33;100.00;56587.81;5048012;28;20496;-62
2022/04/01 04:47:52;;;;;;;7.30;6.60;;;;;;;-148.33;100.00;56587.81;5048230;28;20036;-61
2022/04/01 04:50:18;;;;;;;8.37;7.67;;;;;;;-148.33;100.00;56587.81;5029493;28;20107;-62
2022/04/01 04:52:55;;;;;;;7.90;7.10;;;;;;;-148.33;100.00;56587.81;5048292;28;20055;-61
2022/04/01 04:55:22;;;;;;;8.10;7.30;;;;;;;-148.33;100.00;56587.81;5047667;28;20588;-58
2022/04/01 04:57:49;;;;;;;8.00;7.30;;;;;;;-148.33;100.00;56587.81;5047530;28;20075;-59
2022/04/01 05:00:19;;;;;;;7.60;6.87;;;;;;;-148.33;100.00;56587.81;5047542;28;20043;-61
2022/04/01 05:03:24;;;;;;;8.07;7.37;;;;;;;-148.33;100.00;56587.81;5048096;28;20043;-59
2022/04/01 05:05:54;;;;;;;8.43;7.63;;;;;;;-148.33;100.00;56587.81;5060628;28;20055;-60
2022/04/01 05:08:44;;;;;;;7.93;7.13;;;;;;;-148.33;100.00;56587.81;5048888;28;20043;-61
2022/04/01 05:11:33;;;;;;;7.63;6.93;;;;;;;-148.33;100.00;56587.81;5048443;28;20354;-60
2022/04/01 05:14:05;;;;;;;7.63;6.83;;;;;;;-148.33;100.00;56587.81;5047811;28;20024;-60
2022/04/01 05:16:48;;;;;;;7.57;6.93;;;;;;;-148.33;100.00;56587.81;5047881;28;20059;-61
2022/04/01 05:19:28;;;;;;;7.20;6.60;;;;;;;-148.33;100.00;56587.81;5047611;28;20044;-61
2022/04/01 05:22:10;;;;;;;7.20;6.60;;;;;;;-148.33;100.00;56587.81;5047260;28;20028;-57
2022/04/01 05:24:48;;;;;;;;;;;;;;;-148.33;100.00;56587.81;5061026;28;20052;-61
2022/04/01 05:27:29;;;;;;;7.10;6.50;;;;;;;-148.33;100.00;56587.81;5066524;28;19905;-61
2022/04/01 05:30:01;;;;;;;7.25;6.65;;;;;;;-148.33;100.00;56587.81;5066745;28;20036;-60
2022/04/01 05:32:31;;;;;;;6.67;6.07;;;;;;;-148.33;100.00;56587.81;5049870;28;20499;-61
2022/04/01 05:35:00;;;;;;;6.93;6.23;;;;;;;-148.33;100.00;56587.81;5047944;28;20037;-61
2022/04/01 05:37:28;;;;;;;7.40;6.67;;;;;;;-148.33;100.00;56587.81;5046846;28;20078;-61
2022/04/01 05:39:54;;;;;;;7.43;6.73;;;;;;;-148.33;100.00;56587.81;5045207;28;20044;-60
2022/04/01 05:42:22;;;;;;;7.37;6.67;;;;;;;-148.33;100.00;56587.81;5045659;28;20056;-61
2022/04/01 05:44:48;;;;;;;6.70;6.10;;;;;;;-148.33;100.00;56587.81;5046418;28;20095;-60
2022/04/01 05:47:16;;;;;;;6.93;6.30;;;;;;;-148.33;100.00;56587.81;5045808;28;20502;-61
2022/04/01 05:49:44;;;;;;;7.50;6.80;;;;;;;-148.33;100.00;56587.81;5045171;28;20059;-58
2022/04/01 05:52:11;;;;;;;7.63;6.83;;;;;;;-148.33;100.00;56587.81;5048500;28;20035;-61
2022/04/01 05:54:39;;;;;;;7.37;6.67;;;;;;;-148.33;100.00;56587.81;5047253;28;20086;-58
2022/04/01 05:57:08;;;;;;;6.80;6.20;;;;;;;-148.33;100.00;56587.81;5044679;28;20032;-60
2022/04/01 05:59:33;;;;;;;7.10;6.40;;;;;;;-148.33;100.00;56587.81;5045367;28;20032;-59
2022/04/01 06:02:36;;;;;;;7.40;6.70;;;;;;;-148.33;100.00;56587.81;5045259;28;20056;-59
2022/04/01 06:05:04;;;;;;;7.67;6.87;;;;;;;-148.33;100.00;56587.81;5045310;28;20048;-58
2022/04/01 06:07:48;;;;;;;6.90;6.30;;;;;;;-148.33;100.00;56587.81;5044409;28;20093;-59
2022/04/01 06:10:40;;;;;;;7.00;6.40;;;;;;;-148.33;100.00;56587.81;5049370;28;20028;-58
2022/04/01 06:13:43;;;;;;;6.90;6.20;;;;;;;-148.33;100.00;56587.81;5048678;28;20052;-60
2022/04/01 06:16:20;;;;;;;6.23;5.73;;;;;;;-148.33;100.00;56587.81;5049997;28;20250;-61
2022/04/01 06:18:58;;;;;;;6.50;5.90;;;;;;;-148.33;100.00;56587.81;5031769;28;20028;-58
2022/04/01 06:21:26;;;;;;;6.73;6.13;;;;;;;-148.33;100.00;56587.81;5050204;28;20036;-56
2022/04/01 06:24:19;;;;;;;6.57;6.07;;;;;;;-148.33;100.00;56587.81;5053713;28;20032;-61
2022/04/01 06:26:54;;;;;;;7.47;6.77;;;;;;;-148.33;100.00;56587.81;5050213;28;20036;-60
2022/04/01 06:29:33;;;;;;;5.47;4.93;;;;;;;-148.33;100.00;56587.81;5051649;28;20025;-60
2022/04/01 06:32:05;;;;;;;8.03;5.53;;;;;;;-148.33;100.00;56587.81;5048723;28;20103;-58
2022/04/01 06:34:45;;;;;;;6.40;5.80;;;;;;;-148.33;100.00;56587.81;5052645;28;20384;-60
2022/04/01 06:37:20;;;;;;;6.13;5.17;;;;;;;-148.33;100.00;56587.81;5050989;28;20032;-61
2022/04/01 06:39:53;;;;;;;5.73;5.23;;;;;;;-148.33;100.00;56587.81;5047900;28;20374;-61
2022/04/01 06:42:24;;;;;;;5.17;4.67;;;;;;;-148.33;100.00;56587.81;5051863;28;20060;-56
2022/04/01 06:44:49;;;;;;;6.35;5.20;;;;;;;-148.33;100.00;56587.81;5048837;28;20040;-61
2022/04/01 06:47:15;;;;;;;5.67;5.00;;;;;;;-148.33;100.00;56587.81;5047051;28;20021;-58
2022/04/01 06:49:40;;;;;;;5.23;4.80;;;;;;;-148.33;100.00;56587.81;5047563;28;20040;-60
2022/04/01 06:52:07;;;;;;;5.93;4.87;;;;;;;-148.33;100.00;56587.81;5049906;28;20021;-62
2022/04/01 06:54:32;;;;;;;5.27;4.77;;;;;;;-148.33;100.00;56587.81;5049063;28;20147;-57
2022/04/01 06:56:58;;;;;;;5.90;5.00;;;;;;;-148.33;100.00;56587.81;5049233;28;20162;-58
2022/04/01 06:59:23;;;;;;;5.57;4.43;;;;;;;-148.33;100.00;56587.81;5048413;28;20032;-59
2022/04/01 07:01:48;;;;;;;6.07;4.80;;;;;;;-148.33;100.00;56587.81;5055814;28;20094;-59
2022/04/01 07:04:14;;;;;;;5.20;3.97;;;;;;;-148.33;100.00;56587.81;5052648;28;20025;-61
2022/04/01 07:06:40;;;;;;;5.27;4.63;;;;;;;-148.33;100.00;56587.81;5058489;28;20079;-58
2022/04/01 07:09:06;;;;;;;4.40;4.00;;;;;;;-148.33;100.00;56587.81;5048885;28;20017;-58
2022/04/01 07:11:32;;;;;;;5.33;4.57;;;;;;;-148.33;100.00;56587.81;5048492;28;20024;-61
2022/04/01 07:13:58;;;;;;;4.60;4.07;;;;;;;-148.33;100.00;56587.81;5054019;28;20039;-61
2022/04/01 07:16:23;;;;;;;4.67;4.10;;;;;;;-148.33;100.00;56587.81;5050770;28;20028;-60
2022/04/01 07:18:48;;;;;;;6.53;4.00;;;;;;;-148.33;100.00;56587.81;5049008;28;20025;-61
2022/04/01 07:21:14;;;;;;;5.10;3.93;;;;;;;-148.33;100.00;56587.81;5058253;28;20534;-61
2022/04/01 07:23:39;;;;;;;5.33;4.70;;;;;;;-148.33;100.00;56587.81;5046317;28;20039;-61
2022/04/01 07:26:05;;;;;;;4.90;3.93;;;;;;;-148.33;100.00;56587.81;5050004;28;20043;-58
2022/04/01 07:28:31;;;;;;;5.97;4.13;;;;;;;-148.33;100.00;56587.81;5048458;28;20032;-59
2022/04/01 07:30:56;;;;;;;5.30;3.80;;;;;;;-148.33;100.00;56587.81;5037059;28;20108;-62
2022/04/01 07:33:22;;;;;;;6.10;4.43;;;;;;;-148.33;100.00;56587.81;5058015;28;20444;-61
2022/04/01 07:35:48;;;;;;;4.83;4.33;;;;;;;-148.33;100.00;56587.81;5046396;28;20096;-62
2022/04/01 07:38:14;;;;;;;5.17;3.87;;;;;;;-148.33;100.00;56587.81;5046635;28;20029;-61
2022/04/01 07:40:40;;;;;;;4.83;3.73;;;;;;;-148.33;100.00;56587.81;5049443;28;20518;-61
2022/04/01 07:43:05;;;;;;;5.50;4.00;;;;;;;-148.33;100.00;56587.81;5048199;28;20024;-59
2022/04/01 07:45:34;;;;;;;4.83;3.47;;;;;;;-148.33;100.00;56587.81;5047259;28;20025;-60
2022/04/01 07:48:00;;;;;;;4.17;3.50;;;;;;;-148.33;100.00;56587.81;5047419;28;20029;-59
2022/04/01 07:50:27;;;;;;;3.40;3.10;;;;;;;-148.33;100.00;56587.81;5049042;28;20029;-59
2022/04/01 07:52:52;;;;;;;4.00;3.60;;;;;;;-148.33;100.00;56587.81;5047075;28;20106;-57
2022/04/01 07:55:18;;;;;;;3.83;3.40;;;;;;;-148.33;100.00;56587.81;5047845;28;20508;-61
2022/04/01 07:57:46;;;;;;;4.43;3.60;;;;;;;-148.33;100.00;56587.81;5048430;28;20499;-58
2022/04/01 08:00:13;;;;;;;4.73;3.40;;;;;;;-148.33;100.00;56587.81;5046266;28;20053;-60
2022/04/01 08:02:39;;;;;;;4.50;3.20;;;;;;;-148.33;100.00;56587.81;5046370;28;20417;-57
2022/04/01 08:05:06;;;;;;;5.57;3.67;;;;;;;-148.33;100.00;56587.81;5050525;28;20025;-61
2022/04/01 08:07:32;;;;;;;4.50;3.70;;;;;;;-148.33;100.00;56587.81;5048611;28;20028;-62
2022/04/01 08:09:58;;;;;;;5.30;3.77;;;;;;;-148.33;100.00;56587.81;5049112;28;20525;-58
2022/04/01 08:12:23;;;;;;;3.40;3.10;;;;;;;-148.33;100.00;56587.81;5048099;28;20021;-60
2022/04/01 08:14:48;;;;;;;4.37;3.30;;;;;;;-148.33;100.00;56587.81;5052202;28;20442;-60
2022/04/01 08:17:15;;;;;;;3.67;3.37;;;;;;;-148.33;100.00;56587.81;5049199;28;20044;-60
2022/04/01 08:19:41;;;;;;;4.13;3.73;;;;;;;-148.33;100.00;56587.81;5067043;28;20473;-61
2022/04/01 08:22:07;;;;;;;3.30;3.00;;;;;;;-148.33;100.00;56587.81;5057886;28;20407;-58
2022/04/01 08:24:32;;;;;;;4.10;3.67;;;;;;;-148.33;100.00;56587.81;5048986;28;20044;-61
2022/04/01 08:27:00;;;;;;;4.57;3.50;;;;;;;-148.33;100.00;56587.81;5063345;28;20029;-61
2022/04/01 08:29:29;;;;;;;3.37;3.07;;;;;;;-148.33;100.00;56587.81;5059382;28;20280;-61
2022/04/01 08:31:56;;;;;;;3.80;3.37;;;;;;;-148.33;100.00;56587.81;5061998;28;20017;-61
2022/04/01 08:34:22;;;;;;;5.57;3.50;;;;;;;-148.33;100.00;56587.81;5053284;28;20028;-59
2022/04/01 08:36:47;;;;;;;3.93;3.23;;;;;;;-148.33;100.00;56587.81;5047742;28;20029;-58
2022/04/01 08:39:12;;;;;;;4.73;3.10;;;;;;;-148.33;100.00;56587.81;5048478;28;20025;-61
2022/04/01 08:41:38;;;;;;;5.47;3.17;;;;;;;-148.33;100.00;56587.81;5048239;28;20025;-58
2022/04/01 08:44:04;;;;;;;3.47;2.57;;;;;;;-148.33;100.00;56587.81;5054357;28;20058;-59
2022/04/01 08:46:30;;;;;;;4.37;2.87;;;;;;;-148.33;100.00;56587.81;5060833;28;20029;-59
2022/04/01 08:48:56;;;;;;;4.10;2.40;;;;;;;-148.33;100.00;56587.81;5055815;28;20380;-57
2022/04/01 08:51:22;;;;;;;3.40;2.63;;;;;;;-148.33;100.00;56587.81;5050766;28;20044;-61
2022/04/01 08:53:48;;;;;;;4.50;2.67;;;;;;;-148.33;100.00;56587.81;5047877;28;20443;-57
2022/04/01 08:56:16;;;;;;;4.57;2.50;;;;;;;-148.33;100.00;56587.81;5048116;28;20021;-61
2022/04/01 08:58:42;;;;;;;4.13;2.30;;;;;;;-148.33;100.00;56587.81;5048099;28;20033;-60
2022/04/01 09:01:07;;;;;;;4.13;2.43;;;;;;;-148.33;100.00;56587.81;5065031;28;20543;-60
2022/04/01 09:03:35;;;;;;;2.87;2.20;;;;;;;-148.33;100.00;56587.81;5053739;28;20052;-57
2022/04/01 09:06:03;;;;;;;5.27;2.30;;;;;;;-148.33;100.00;56587.81;5051801;28;20048;-61
2022/04/01 09:08:35;;;;;;;2.73;2.00;;;;;;;-148.33;100.00;56587.81;5054458;28;20448;-61
2022/04/01 09:11:21;;;;;;;3.33;2.10;;;;;;;-148.33;100.00;56587.81;5052117;28;20036;-61
2022/04/01 09:13:48;;;;;;;2.63;2.20;;;;;;;-148.33;100.00;56587.81;5051506;28;20095;-61
2022/04/01 09:16:32;;;;;;;3.60;2.40;;;;;;;-148.33;100.00;56587.81;5061264;28;20033;-60
2022/04/01 09:19:02;;;;;;;2.10;1.90;;;;;;;-148.33;100.00;56587.81;5066621;28;20044;-61
2022/04/01 09:21:33;;;;;;;3.35;2.55;;;;;;;-148.33;100.00;56587.81;5059075;28;20028;-61
2022/04/01 09:24:00;;;;;;;2.95;2.63;;;;;;;-148.33;100.00;56587.81;5052005;28;20101;-60
2022/04/01 09:26:36;;;;;;;4.07;2.73;;;;;;;-148.33;100.00;56587.81;5049635;28;20024;-62
2022/04/01 09:29:03;;;;;;;4.70;2.70;;;;;;;-148.33;100.00;56587.81;5049371;28;20459;-58
2022/04/01 09:31:36;;;;;;;5.57;2.87;;;;;;;-148.33;100.00;56587.81;5053736;28;20029;-62
2022/04/01 09:34:06;;;;;;;3.03;2.10;;;;;;;-148.33;100.00;56587.81;5055661;28;20522;-61
2022/04/01 09:36:38;;;;;;;4.37;2.23;;;;;;;-148.33;100.00;56587.81;5053908;28;20120;-59
2022/04/01 09:39:07;;;;;;;2.87;2.43;;;;;;;-148.33;100.00;56587.81;5051098;28;20496;-62
2022/04/01 09:41:37;;;;;;;3.90;3.37;;;;;;;-148.33;100.00;56587.81;5051714;28;20090;-55
2022/04/01 09:44:11;;;;;;;5.07;2.93;;;;;;;-148.33;100.00;56587.81;5050258;28;20543;-62
2022/04/01 09:47:01;;;;;;;6.43;2.77;;;;;;;-148.33;100.00;56587.81;5053746;28;20540;-58
2022/04/01 09:49:39;;;;;;;4.53;2.50;;;;;;;-148.33;100.00;56587.81;5055411;28;20062;-61
2022/04/01 09:52:10;;;;;;;4.13;2.20;;;;;;;-148.33;100.00;56587.81;5051012;28;20032;-62
2022/04/01 09:54:51;;;;;;;3.67;2.75;;;;;;;-148.33;100.00;56587.81;5062496;28;20032;-60
2022/04/01 09:57:19;;;;;;;3.50;2.57;;;;;;;-148.33;100.00;56587.81;5057205;28;20590;-59
2022/04/01 09:59:46;;;;;;;3.23;2.80;;;;;;;-148.33;100.00;56587.81;5055930;28;20062;-62
2022/04/01 10:02:12;;;;;;;2.40;1.97;;;;;;;-148.33;100.00;56587.81;5057818;28;20128;-61
2022/04/01 10:04:37;;;;;;;3.27;1.93;;;;;;;-148.33;100.00;56587.81;5053437;28;20108;-60
2022/04/01 10:07:03;;;;;;;4.17;2.30;;;;;;;-148.33;100.00;56587.81;5065373;28;20021;-58
2022/04/01 10:09:33;;;;;;;2.80;2.20;;;;;;;-148.33;100.00;56587.81;5069848;28;20056;-60
2022/04/01 10:12:02;;;;;;;2.80;2.37;;;;;;;-148.33;100.00;56587.81;5060138;28;20025;-61
2022/04/01 10:14:28;;;;;;;3.17;2.30;;;;;;;-148.33;100.00;56587.81;5064363;28;20024;-62
2022/04/01 10:16:55;;;;;;;4.20;2.40;;;;;;;-148.33;100.00;56587.81;5070161;28;20063;-61
2022/04/01 10:19:32;;;;;;;2.47;2.17;;;;;;;-148.33;100.00;56587.81;5055531;28;20032;-60
2022/04/01 10:21:59;;;;;;;3.60;2.17;;;;;;;-148.33;100.00;56587.81;5055126;28;20075;-61
2022/04/01 10:24:38;;;;;;;2.70;2.07;;;;;;;-148.33;100.00;56587.81;5053367;28;20021;-61
2022/04/01 10:27:23;;;;;;;2.30;2.10;;;;;;;-148.33;100.00;56587.81;5055924;28;20075;-62
2022/04/01 10:29:49;;;;;;;3.50;1.90;;;;;;;-148.33;100.00;56587.81;5051854;28;20108;-62
2022/04/01 10:32:26;;;;;;;3.37;3.03;;;;;;;-148.33;100.00;56587.81;5056657;28;20028;-62
2022/04/01 10:34:54;;;;;;;4.50;2.50;;;;;;;-148.33;100.00;56587.81;5053174;28;20052;-59
2022/04/01 10:37:25;;;;;;;2.30;1.60;;;;;;;-148.33;100.00;56587.81;5053446;28;20079;-61
2022/04/01 10:40:15;;;;;;;5.90;2.03;;;;;;;-148.33;100.00;56587.81;5052123;28;20055;-58
2022/04/01 10:42:40;;;;;;;3.73;1.80;;;;;;;-148.33;100.00;56587.81;5052540;28;20487;-62
2022/04/01 10:45:22;;;;;;;2.43;1.83;;;;;;;-148.33;100.00;56587.81;5055913;28;20025;-58
2022/04/01 10:53:38;;;;;;;3.03;2.40;;;;;;;-148.33;100.00;56587.81;5055888;28;20090;-62
2022/04/01 10:56:25;;;;;;;4.33;2.70;;;;;;;-148.33;100.00;56587.81;5053680;28;20090;-59
2022/04/01 10:59:08;;;;;;;4.13;2.53;;;;;;;-148.33;100.00;56587.81;5052425;28;20036;-58
2022/04/01 11:02:01;;;;;;;4.13;2.50;;;;;;;-148.33;100.00;56587.81;5050570;28;20090;-61
2022/04/01 11:04:30;;;;;;;5.30;3.10;;;;;;;-148.33;100.00;56587.81;5052334;28;20036;-61
2022/04/01 11:06:58;;;;;;;5.53;2.70;;;;;;;-148.33;100.00;56587.81;5053598;28;20028;-62
2022/04/01 11:09:40;;;;;;;3.83;3.10;;;;;;;-148.33;100.00;56587.81;5053376;28;20118;-63
2022/04/01 11:12:15;;;;;;;5.07;3.03;;;;;;;-148.33;100.00;56587.81;5051378;28;20048;-60
2022/04/01 11:17:38;;;;;;;3.77;2.73;;;;;;;-148.33;100.00;56587.81;5054493;28;20028;-61
2022/04/01 11:20:10;;;;;;;3.40;2.97;;;;;;;-148.33;100.00;56587.81;5051551;28;20052;-62
2022/04/01 11:22:39;;;;;;;3.33;3.03;;;;;;;-148.33;100.00;56587.81;5066555;28;20033;-62
2022/04/01 11:25:06;;;;;;;4.97;2.80;;;;;;;-148.33;100.00;56587.81;5068418;28;20021;-60
2022/04/01 11:27:33;;;;;;;4.97;3.27;;;;;;;-148.33;100.00;56587.81;5064009;28;20105;-62
2022/04/01 11:30:07;;;;;;;4.30;3.00;;;;;;;-148.33;100.00;56587.81;5054604;28;20021;-62
2022/04/01 11:32:37;;;;;;;4.93;3.47;;;;;;;-148.33;100.00;56587.81;5052897;28;20035;-58